Aérodrome :
LOGIN :

S'inscrire | Disclaimer

   EN    FR    IT 

 










Légende :    VFR   VFR Marginal   IFR   IFR Intensif   IFR Très Intensif
Visi : 
Plafond : 
>= 8 km
>= 3000ft
5 à 8 km
1000 à 3000 ft
1500m à 5 km
500 à 1000 ft
800 à 1500m
200 à 500 ft
< 800m
< 200 ft
Symboles :   Orages  Brouillard  Fortes neiges  Fortes précipitations  Vent > 20 kt
SIGMETs :   Divers  Orages  Givrage  Turbulence  Onde Orograph.  Cendres Volcan.







- Altitude de l'aérodrome : 142 ft
- Code IATA : ALC


LEAL - Alicante

DERNIER METAR :
  • 191430Z 34004KT 300V010 9000 RA FEW040 OVC048 14/12 Q1015 NOSIG

METARs EXPIRÉS :
  • 191400Z 33005KT 220V010 7000 RA FEW040 OVC051 14/12 Q1015 NOSIG
  • 191330Z 32005KT 250V360 9999 RA FEW040 OVC050 15/12 Q1015 NOSIG
  • 191300Z 31005KT 9999 -RA FEW040 OVC056 15/12 Q1015 NOSIG
  • 191230Z 28003KT 240V330 9999 -RA FEW040 OVC060 15/12 Q1015 NOSIG
  • 191200Z 26004KT 230V320 9999 -RA FEW040 OVC067 15/13 Q1015 NOSIG
  • 191130Z 25007KT 9999 -DZ FEW040 OVC067 15/12 Q1015 NOSIG

TAF TAF LEAL
Valide du 19 à 12h jusqu'au 20 à 12h UTC


191100Z 1912/2012 25010KT 9999 BKN040 TX18/1912Z TN14/2006Z
BECMG 1916/1918 05020KT
PROB40
TEMPO 1918/2006 TSRA SCT020CB
TEMPO 1918/2002 05020G35KT
TEMPO 2002/2012 05030G40KT
Pas de NOTAMs connus pour ce terrain.



MET'MAP, la Météo Aéronautique d'un coup d'oeil ! - Copyright ORBIFLY Décembre 2007 - Disclaimer

ORBIFLY MET'MAP TEAM :

Programmation & Développement : Alexandra Zaïnal
Conception & Développement : Baudouin d'Aumeries
Co-Programmation & Développement : Marc-Olivier Méhu
Soutien technique & logistique : Manuel Goepfert

Contact : metmap@orbifly.com




SOURCES & CREDITS :

   NOAA